Latest Coastal Weather Observations for Albany Airport

IDW60701

Issued at 4:43 am WST Thursday 27 July 2017 (issued every 10 minutes, with the page automatically refreshed every 10 minutes)

About coastal observations | Map of coastal stations | Coastal observations for WA | Marine services | Other Formats
Station Details ID: 009999 Name: ALBANY AIRPORT Lat: -34.94 Lon: 117.82 Height: 68.4 m
Data from the previous 72 hours. | See also: Recent months at Albany Airport
Date/Time
WST
Temp
°C
Wind Pressure Rain since
9am
mm
Weather Cloud Vis
km
Sea
Height
m
Swell
Dir  Spd
kts
Gust
kts
hPa Trend Height
m
Period
s
Dir
27/04:30am 5.8 N 3 6 1016.9 - 5.2 - - 10 - - - -
27/04:00am 6.6 N 3 4 1017.0 - 5.2 - - 10 - - - -
27/03:30am 7.9 NNW 7 9 1017.3 - 5.2 - - 10 - - - -
27/03:00am 7.8 NNW 7 9 1017.6 - 5.2 - - 10 - - - -
27/02:30am 8.0 NNW 7 11 1017.6 - 5.2 - - 10 - - - -
27/02:00am 8.0 NNW 8 10 1017.8 - 5.2 - - 10 - - - -
27/01:30am 7.2 NNW 5 6 1018.0 - 5.2 - - 10 - - - -
27/01:00am 7.0 NW 6 7 1018.0 - 5.2 - - 10 - - - -
27/12:30am 7.9 NW 6 7 1018.3 - 5.2 - - 10 - - - -
27/12:00am 9.0 NW 6 7 1018.5 - 5.2 - - 10 - - - -
 
Date/Time
WST
Temp
°C
Wind Pressure Rain since
9am
mm
Weather Cloud Vis
km
Sea
Height
m
Swell
Dir  Spd
kts
Gust
kts
hPa Trend Height
m
Period
s
Dir
26/11:30pm 9.2 NW 8 9 1018.4 - 5.2 - - 10 - - - -
26/11:00pm 9.3 NW 9 11 1018.6 - 5.2 - - 10 - - - -
26/10:30pm 9.2 WNW 9 11 1018.6 - 5.2 - - 10 - - - -
26/10:00pm 9.1 NW 8 10 1018.4 - 5.2 - - 10 - - - -
26/09:30pm 8.7 NW 8 9 1018.3 - 5.2 - - 10 - - - -
26/09:00pm 8.9 WNW 8 9 1018.3 - 5.0 - - 10 - - - -
26/08:30pm 10.0 NW 8 9 1018.1 - 5.0 - Partly cloudy 10 - - - -
26/08:00pm 10.6 WNW 7 9 1017.9 - 5.0 - - 10 - - - -
26/07:30pm 11.2 WNW 7 9 1017.6 - 5.0 - - 10 - - - -
26/07:00pm 11.5 WNW 8 10 1017.1 - 5.0 - - 10 - - - -
26/06:30pm 12.0 WNW 9 13 1016.6 - 5.0 - - 10 - - - -
26/06:00pm 13.1 W 12 18 1016.3 - 5.0 - - 10 - - - -
26/05:30pm 13.0 W 11 14 1015.7 - 5.0 - Partly cloudy 10 - - - -
26/05:00pm 13.6 W 12 17 1015.3 - 5.0 - - 10 - - - -
26/04:30pm 14.3 W 14 20 1014.9 - 5.0 - Partly cloudy 10 - - - -
26/04:00pm 15.0 W 13 20 1014.2 - 5.0 - Partly cloudy 10 - - - -
26/03:30pm 15.0 W 14 19 1013.5 - 5.0 - - 10 - - - -
26/03:00pm 14.9 W 16 22 1013.6 - 5.0 - Partly cloudy 10 - - - -
26/02:30pm 15.6 W 15 24 1013.3 - 5.0 - Mostly clear 10 - - - -
26/02:00pm 13.8 WSW 14 23 1012.9 - 5.0 - Mostly clear 10 - - - -
26/01:30pm 15.3 W 14 20 1012.3 - 5.0 - Mostly clear 10 - - - -
26/01:00pm 14.2 W 15 23 1012.3 - 5.0 - Partly cloudy 10 - - - -
26/12:30pm 12.9 W 17 25 1012.4 - 5.0 Showers Partly cloudy 4 - - - -
26/12:05pm 15.0 WSW 18 25 1011.9 - 1.4 Showers Partly cloudy 3 - - - -
26/12:00pm 16.1 WNW 13 19 1011.5 - 0.8 - Partly cloudy 10 - - - -
26/11:30am 15.6 WNW 10 13 1011.6 - 0.8 - Mostly clear 10 - - - -
26/11:00am 13.8 WNW 12 17 1012.0 - 0.8 - Partly cloudy 10 - - - -
26/10:30am 14.2 WNW 9 13 1012.3 - 0.4 Showers Partly cloudy 9 - - - -
26/10:00am 14.6 NW 10 15 1012.2 - 0.2 - Mostly clear 10 - - - -
26/09:30am 13.9 NW 8 11 1011.9 - 0.0 - Mostly clear 9 - - - -
26/09:00am 13.5 NNW 5 7 1012.0 - 3.0 - Cloudy 3 - - - -
26/08:28am 13.4 NNW 7 10 1011.7 - 1.8 Showers Mostly clear 6 - - - -
26/08:03am 13.1 W 7 10 1012.1 - 1.8 - Partly cloudy 10 - - - -
26/08:00am 13.2 W 8 12 1012.1 - 1.8 - Partly cloudy 10 - - - -
26/07:30am 13.1 NNW 11 16 1011.6 - 1.4 - Partly cloudy 10 - - - -
26/07:27am 13.2 NNW 11 14 1011.6 - 1.0 - Partly cloudy 10 - - - -
26/07:16am 13.1 NNW 10 14 1011.7 - 0.8 - Partly cloudy 6 - - - -
26/07:00am 13.3 N 11 15 1011.6 - 0.2 - Partly cloudy 10 - - - -
26/06:30am 13.5 N 11 15 1011.3 - 0.0 - Partly cloudy 10 - - - -
26/06:00am 13.9 NNW 12 16 1011.4 - 0.0 - Mostly clear 10 - - - -
26/05:30am 13.4 N 11 16 1011.2 - 0.0 - Partly cloudy 10 - - - -
26/05:00am 13.2 N 11 18 1011.6 - 0.0 - Partly cloudy 10 - - - -
26/04:30am 13.1 N 9 13 1012.0 - 0.0 - - 10 - - - -
26/04:00am 13.2 NNW 11 15 1012.3 - 0.0 - - 10 - - - -
26/03:30am 14.0 NNW 13 19 1012.2 - 0.0 - Partly cloudy 10 - - - -
26/03:00am 13.9 NNW 12 16 1012.4 - 0.0 - Mostly clear 10 - - - -
26/02:30am 13.9 NNW 11 15 1012.5 - 0.0 - Partly cloudy 10 - - - -
26/02:00am 13.9 NNW 9 14 1012.8 - 0.0 - Partly cloudy 10 - - - -
26/01:30am 14.1 NNW 13 17 1013.3 - 0.0 - Cloudy 10 - - - -
26/01:00am 13.9 NNW 11 14 1013.4 - 0.0 - Partly cloudy 10 - - - -
26/12:30am 14.2 NW 11 15 1013.7 - 0.0 - Partly cloudy 10 - - - -
26/12:00am 14.1 NNW 12 17 1013.9 - 0.0 - Mostly clear 10 - - - -
 
Date/Time
WST
Temp
°C
Wind Pressure Rain since
9am
mm
Weather Cloud Vis
km
Sea
Height
m
Swell
Dir  Spd
kts
Gust
kts
hPa Trend Height
m
Period
s
Dir
25/11:30pm 14.1 NNW 12 17 1014.0 - 0.0 - Partly cloudy 10 - - - -
25/11:00pm 13.9 NNW 10 16 1014.2 - 0.0 - - 10 - - - -
25/10:30pm 14.0 NNW 11 17 1014.4 - 0.0 - - 10 - - - -
25/10:00pm 14.4 NNW 12 16 1014.8 - 0.0 - - 10 - - - -
25/09:30pm 14.6 NNW 12 16 1015.0 - 0.0 - - 10 - - - -
25/09:00pm 14.6 NNW 13 19 1015.5 - 0.0 - - 10 - - - -
25/08:30pm 14.3 NNW 10 13 1015.4 - 0.0 - - 10 - - - -
25/08:00pm 14.1 N 10 15 1015.2 - 0.0 - - 10 - - - -
25/07:30pm 12.7 N 7 9 1015.1 - 0.0 - - 10 - - - -
25/07:00pm 12.2 N 7 7 1015.1 - 0.0 - - 10 - - - -
25/06:30pm 12.2 NNE 7 7 1015.3 - 0.0 - - 10 - - - -
25/06:00pm 12.0 N 6 7 1015.7 - 0.0 - - 10 - - - -
25/05:30pm 12.0 NNE 5 6 1015.4 - 0.0 - - 10 - - - -
25/05:00pm 14.0 NNW 6 7 1016.0 - 0.0 - - 10 - - - -
25/04:30pm 15.0 N 7 11 1016.0 - 0.0 - - 10 - - - -
25/04:00pm 15.7 NNW 9 13 1016.1 - 0.0 - - 10 - - - -
25/03:30pm 16.1 NNW 9 13 1016.2 - 0.0 - - 10 - - - -
25/03:00pm 16.3 NNW 11 17 1016.6 - 0.0 - Partly cloudy 10 - - - -
25/02:30pm 16.8 NNW 11 17 1016.6 - 0.0 - Mostly clear 10 - - - -
25/02:00pm 16.8 NW 11 16 1016.7 - 0.0 - Mostly clear 10 - - - -
25/01:30pm 16.1 NNW 11 15 1017.0 - 0.0 - Mostly clear 10 - - - -
25/01:00pm 16.1 NW 12 17 1017.3 - 0.0 - Mostly clear 10 - - - -
25/12:30pm 15.6 NNW 14 19 1017.7 - 0.0 - Partly cloudy 10 - - - -
25/12:00pm 14.2 NNW 11 13 1018.1 - 0.0 - Mostly clear 10 - - - -
25/11:30am 15.0 NNW 12 17 1018.3 - 0.0 - Mostly clear 10 - - - -
25/11:00am 14.8 NNW 11 15 1018.5 - 0.0 - Mostly clear 10 - - - -
25/10:30am 14.1 NNW 9 13 1018.8 - 0.0 - Mostly clear 10 - - - -
25/10:00am 13.3 NNW 9 14 1019.2 - 0.0 - Mostly clear 10 - - - -
25/09:30am 12.3 NNW 11 15 1019.2 - 0.0 - Mostly clear 10 - - - -
25/09:00am 11.1 NNW 11 14 1019.4 - 3.4 - Mostly clear 10 - - - -
25/08:30am 10.1 NNW 11 14 1019.1 - 3.4 - Mostly clear 10 - - - -
25/08:00am 9.0 NNW 9 13 1018.7 - 3.4 - - 10 - - - -
25/07:30am 8.2 N 7 9 1018.3 - 3.4 - - 10 - - - -
25/07:00am 7.3 NNW 5 6 1018.4 - 3.4 - - 10 - - - -
25/06:30am 7.4 N 5 7 1018.3 - 3.4 - - 10 - - - -
25/06:00am 7.7 NNW 6 8 1018.3 - 3.4 - - 10 - - - -
25/05:30am 7.6 NNW 6 8 1017.9 - 3.4 - - 10 - - - -
25/05:00am 8.1 NNW 7 9 1018.0 - 3.4 - - 10 - - - -
25/04:30am 7.3 NNW 6 7 1018.0 - 3.4 - - 10 - - - -
25/04:00am 6.7 NW 6 7 1017.9 - 3.4 - - 10 - - - -
25/03:30am 7.3 NW 7 8 1018.0 - 3.4 - - 10 - - - -
25/03:00am 7.4 NW 7 9 1018.2 - 3.4 - - 10 - - - -
25/02:30am 7.9 WNW 7 8 1017.9 - 3.4 - - 10 - - - -
25/02:00am 8.3 NW 7 10 1017.7 - 3.4 - - 10 - - - -
25/01:30am 8.5 NW 8 11 1017.8 - 3.2 - - 10 - - - -
25/01:00am 8.8 NW 8 10 1017.9 - 3.2 - - 10 - - - -
25/12:30am 8.7 NW 8 10 1017.9 - 3.2 - Partly cloudy 10 - - - -
25/12:00am 8.6 NW 9 11 1018.2 - 3.2 - Partly cloudy 10 - - - -
 
Date/Time
WST
Temp
°C
Wind Pressure Rain since
9am
mm
Weather Cloud Vis
km
Sea
Height
m
Swell
Dir  Spd
kts
Gust
kts
hPa Trend Height
m
Period
s
Dir
24/11:30pm 7.7 NW 7 8 1017.9 - 3.2 - - 10 - - - -
24/11:00pm 7.9 NW 7 9 1017.9 - 3.2 - - 10 - - - -
24/10:30pm 7.7 NNW 6 8 1017.9 - 3.2 - - 10 - - - -
24/10:00pm 8.2 NW 7 9 1018.0 - 3.2 - Partly cloudy 10 - - - -
24/09:30pm 8.7 NW 6 8 1017.9 - 3.2 - Partly cloudy 10 - - - -
24/09:00pm 8.6 NNW 7 8 1018.0 - 3.2 - Mostly clear 10 - - - -
24/08:30pm 8.8 NNW 7 10 1017.9 - 3.2 - Partly cloudy 10 - - - -
24/08:00pm 8.9 N 7 9 1017.8 - 3.2 - Partly cloudy 10 - - - -
24/07:30pm 9.3 NW 5 6 1017.8 - 3.2 - Partly cloudy 10 - - - -
24/07:01pm 9.9 W 3 5 1017.8 - 3.2 - Partly cloudy 10 - - - -
24/07:00pm 9.9 W 3 5 1017.7 - 3.2 - Partly cloudy 10 - - - -
24/06:50pm 10.0 W 8 15 1017.9 - 3.0 - Partly cloudy 6 - - - -
24/06:35pm 10.2 WNW 14 19 1018.1 - 2.0 - Partly cloudy 7 - - - -
24/06:30pm 10.2 WNW 14 19 1018.0 - 1.6 - Partly cloudy 8 - - - -
24/06:16pm 10.6 WNW 15 19 1018.0 - 1.0 - Partly cloudy 5 - - - -
24/06:00pm 11.7 WNW 6 12 1017.6 - 0.0 - Cloudy 10 - - - -
24/05:30pm 12.4 W 6 7 1016.9 - 0.0 - Partly cloudy 10 - - - -
24/05:00pm 12.2 NW 5 5 1016.6 - 0.0 - - 10 - - - -
24/04:30pm 14.1 W 6 8 1016.1 - 0.0 - - 10 - - - -
24/04:00pm 15.4 W 8 11 1015.9 - 0.0 - - 10 - - - -
24/03:30pm 14.6 WNW 9 11 1015.7 - 0.0 - Partly cloudy 10 - - - -
24/03:00pm 13.6 WNW 12 18 1015.8 - 0.0 - Cloudy 10 - - - -
24/02:30pm 14.8 WSW 13 17 1015.5 - 0.0 - Mostly clear 10 - - - -
24/02:00pm 15.7 W 12 17 1015.4 - 0.0 - Mostly clear 10 - - - -
24/01:30pm 14.9 W 10 13 1015.4 - 0.0 - Mostly clear 10 - - - -
24/01:00pm 15.2 WNW 13 17 1015.5 - 0.0 - Mostly clear 10 - - - -
24/12:30pm 14.3 W 14 19 1015.9 - 0.0 - Partly cloudy 10 - - - -
24/12:00pm 14.3 WNW 15 20 1016.5 - 0.0 - Cloudy 10 - - - -
24/11:30am 13.5 WNW 12 17 1016.6 - 0.0 - Mostly clear 10 - - - -
24/11:00am 12.7 WNW 13 18 1017.1 - 0.0 - Mostly clear 8 - - - -
24/10:30am 13.4 NW 13 18 1017.0 - 0.0 - Mostly clear 10 - - - -
24/10:00am 13.0 NW 13 17 1017.1 - 0.0 - Mostly clear 10 - - - -
24/09:30am 12.2 NW 11 15 1016.9 - 0.0 - Mostly clear 10 - - - -
24/09:00am 11.1 NW 11 14 1017.0 - 1.6 - Mostly clear 10 - - - -
24/08:30am 10.0 NW 10 14 1016.5 - 1.6 - Mostly clear 10 - - - -
24/08:00am 8.8 WNW 9 11 1016.3 - 1.6 - Mostly clear 10 - - - -
24/07:30am 8.0 NW 8 11 1016.0 - 1.6 - - 10 - - - -
24/07:00am 7.7 WNW 8 12 1015.9 - 1.4 - - 10 - - - -
24/06:30am 7.6 NNW 6 8 1015.4 - 1.4 - - 10 - - - -
24/06:00am 7.3 NW 5 7 1015.3 - 1.4 - Mostly clear 10 - - - -
24/05:30am 8.4 NW 9 11 1014.8 - 1.4 - Partly cloudy 10 - - - -
24/05:00am 8.5 NW 9 13 1014.7 - 1.4 - Partly cloudy 10 - - - -

Other Formats:

Comma delimited format used in spreadsheet applications
http://www.bom.gov.au/fwo/IDW60701/IDW60701.94802.axf

JavaScript Object Notation format (JSON) in row-major order
http://www.bom.gov.au/fwo/IDW60701/IDW60701.94802.json